Time;durP1;ratioP1;P1;durP2;ratioP2;P2;SDS_P1;SDS_P2;PMS_P1;PMS_P2;Temp;Humidity;BMP_temperature;BMP_pressure;BME280_temperature;BME280_humidity;BME280_pressure;Samples;Min_cycle;Max_cycle;Signal;HPM_P1;HPM_P2
2023/03/28 00:02:07;;;;;;;18.45;11.20;;;;;;;3.22;77.01;102594.22;5051079;28;20378;-45
2023/03/28 00:04:33;;;;;;;19.08;11.55;;;;;;;3.18;77.09;102589.41;5050945;28;20041;-45
2023/03/28 00:06:58;;;;;;;19.45;11.30;;;;;;;3.17;77.56;102585.84;5050890;28;20378;-45
2023/03/28 00:09:24;;;;;;;19.45;10.98;;;;;;;3.20;78.37;102588.16;5051218;28;20036;-46
2023/03/28 00:11:50;;;;;;;22.45;11.70;;;;;;;3.17;77.33;102594.03;5051109;28;20095;-46
2023/03/28 00:14:15;;;;;;;18.17;10.90;;;;;;;3.14;77.28;102590.91;5050966;28;20060;-48
2023/03/28 00:16:44;;;;;;;18.65;11.32;;;;;;;3.10;77.56;102590.47;5033150;28;20496;-49
2023/03/28 00:19:17;;;;;;;19.08;11.05;;;;;;;3.12;77.93;102581.00;5050945;28;20060;-44
2023/03/28 00:21:48;;;;;;;20.00;11.00;;;;;;;3.07;78.08;102579.97;5054335;28;20097;-48
2023/03/28 00:24:20;;;;;;;19.95;11.38;;;;;;;2.95;77.76;102566.09;5054437;28;20033;-45
2023/03/28 00:26:48;;;;;;;20.05;11.00;;;;;;;3.05;77.22;102593.00;5054370;28;20032;-43
2023/03/28 00:29:15;;;;;;;20.13;11.55;;;;;;;2.96;78.16;102585.00;5054423;28;20496;-44
2023/03/28 00:31:41;;;;;;;19.88;11.70;;;;;;;2.91;78.41;102589.44;5054257;28;20792;-44
2023/03/28 00:34:07;;;;;;;20.60;11.57;;;;;;;2.89;78.61;102589.66;5054468;28;20037;-46
2023/03/28 00:36:33;;;;;;;21.50;11.68;;;;;;;2.87;78.48;102586.28;5054454;28;20107;-44
2023/03/28 00:39:05;;;;;;;20.27;11.23;;;;;;;2.86;78.74;102589.25;5054357;28;20082;-43
2023/03/28 00:41:32;;;;;;;18.50;11.10;;;;;;;2.84;79.07;102583.13;5054309;28;20028;-48
2023/03/28 00:43:59;;;;;;;21.40;11.05;;;;;;;2.86;79.08;102589.25;5053965;28;20397;-46
2023/03/28 00:46:34;;;;;;;19.73;11.35;;;;;;;2.81;78.73;102589.88;5054075;28;20033;-43
2023/03/28 00:49:05;;;;;;;18.90;11.20;;;;;;;2.73;78.25;102601.03;5035975;28;20457;-44
2023/03/28 00:51:36;;;;;;;21.10;11.40;;;;;;;2.74;79.33;102592.59;5051598;28;20040;-44
2023/03/28 00:54:03;;;;;;;20.02;11.13;;;;;;;2.75;79.00;102590.69;5053960;28;20389;-46
2023/03/28 00:56:33;;;;;;;17.83;11.07;;;;;;;2.71;79.13;102586.72;5036023;28;20471;-46
2023/03/28 00:59:05;;;;;;;19.90;10.80;;;;;;;2.70;79.35;102585.03;5054603;28;20044;-49
2023/03/28 01:01:30;;;;;;;19.58;11.98;;;;;;;2.72;79.10;102594.69;5053803;28;20483;-43
2023/03/28 01:04:01;;;;;;;20.55;11.50;;;;;;;2.64;79.49;102587.56;5053962;28;20035;-44
2023/03/28 01:06:31;;;;;;;18.52;11.13;;;;;;;2.62;79.27;102589.66;5053959;28;20039;-44
2023/03/28 01:08:59;;;;;;;17.65;11.00;;;;;;;2.57;78.70;102580.41;5053807;28;20032;-44
2023/03/28 01:11:26;;;;;;;21.67;11.30;;;;;;;2.57;79.35;102581.25;5053799;28;20033;-44
2023/03/28 01:13:52;;;;;;;20.05;11.32;;;;;;;2.58;79.82;102582.94;5053514;28;20104;-43
2023/03/28 01:16:20;;;;;;;21.38;11.15;;;;;;;2.51;78.78;102579.34;5053840;28;20117;-43
2023/03/28 01:18:50;;;;;;;19.90;11.65;;;;;;;2.51;78.92;102579.34;5035395;28;20057;-43
2023/03/28 01:21:15;;;;;;;19.75;11.35;;;;;;;2.55;79.26;102582.50;5053467;28;20060;-44
2023/03/28 01:24:11;;;;;;;18.15;11.20;;;;;;;2.57;80.16;102583.16;5053161;28;20083;-45
2023/03/28 01:26:57;;;;;;;18.13;11.05;;;;;;;2.51;79.72;102582.09;5053411;28;20029;-47
2023/03/28 01:29:53;;;;;;;19.88;10.80;;;;;;;2.55;79.85;102577.88;5035459;28;20029;-45
2023/03/28 01:32:50;;;;;;;19.02;11.25;;;;;;;2.57;79.77;102572.22;5053495;28;20040;-44
2023/03/28 01:35:16;;;;;;;18.05;10.63;;;;;;;2.56;79.64;102571.34;5052897;28;20040;-43
2023/03/28 01:37:52;;;;;;;20.23;11.05;;;;;;;2.55;79.67;102569.66;5053305;28;20408;-47
2023/03/28 01:40:39;;;;;;;19.48;10.80;;;;;;;2.55;79.77;102574.31;5034736;28;20081;-44
2023/03/28 01:43:35;;;;;;;18.48;10.82;;;;;;;2.58;79.22;102573.91;5053128;28;20029;-46
2023/03/28 01:46:26;;;;;;;19.75;11.23;;;;;;;2.57;79.23;102567.56;5053577;28;20033;-46
2023/03/28 01:49:07;;;;;;;18.15;10.73;;;;;;;2.52;79.41;102572.84;5052906;28;20029;-44
2023/03/28 01:51:45;;;;;;;18.92;11.38;;;;;;;2.48;79.74;102574.28;5050247;28;20401;-43
2023/03/28 01:54:25;;;;;;;22.23;11.32;;;;;;;2.49;79.74;102567.78;5053011;28;20025;-46
2023/03/28 01:57:17;;;;;;;17.40;10.32;;;;;;;2.48;79.47;102569.69;5052737;28;20040;-44
2023/03/28 02:00:11;;;;;;;19.05;11.18;;;;;;;2.54;79.58;102567.16;5052860;28;20078;-43
2023/03/28 02:02:39;;;;;;;;;;;;;;;2.64;78.41;102570.31;5053385;28;20028;-43
2023/03/28 02:05:13;;;;;;;21.33;10.93;;;;;;;2.56;79.75;102573.25;5052784;28;19909;-43
2023/03/28 02:07:40;;;;;;;19.48;11.15;;;;;;;2.57;79.77;102564.84;5052838;28;20037;-45
2023/03/28 02:10:09;;;;;;;20.45;11.20;;;;;;;2.60;79.76;102556.25;5052772;28;20516;-43
2023/03/28 02:12:45;;;;;;;18.70;11.20;;;;;;;2.69;79.44;102561.50;5052439;28;20116;-46
2023/03/28 02:15:15;;;;;;;17.70;10.52;;;;;;;2.62;79.03;102556.88;5052479;28;20047;-46
2023/03/28 02:17:44;;;;;;;18.25;10.95;;;;;;;2.65;79.06;102559.16;5052477;28;20493;-43
2023/03/28 02:20:15;;;;;;;19.70;10.65;;;;;;;2.62;78.95;102566.94;5052441;28;20024;-43
2023/03/28 02:22:57;;;;;;;19.52;11.32;;;;;;;2.62;79.24;102562.34;5052409;28;20112;-46
2023/03/28 02:25:23;;;;;;;19.13;11.52;;;;;;;2.58;79.22;102569.25;5052283;28;20036;-45
2023/03/28 02:27:53;;;;;;;22.60;11.63;;;;;;;2.56;79.37;102562.34;5052281;28;20162;-43
2023/03/28 02:30:20;;;;;;;20.95;11.48;;;;;;;2.52;79.12;102564.66;5052216;28;20037;-45
2023/03/28 02:32:49;;;;;;;18.20;11.27;;;;;;;2.46;79.31;102557.28;5034311;28;20024;-44
2023/03/28 02:35:19;;;;;;;19.98;10.88;;;;;;;2.43;79.25;102560.44;5034252;28;20545;-43
2023/03/28 02:38:10;;;;;;;19.02;11.40;;;;;;;2.48;79.38;102557.91;5052322;28;20474;-43
2023/03/28 02:41:04;;;;;;;19.65;11.00;;;;;;;2.41;79.41;102559.81;5052178;28;20025;-44
2023/03/28 02:43:54;;;;;;;18.42;11.10;;;;;;;2.36;79.05;102565.06;5051857;28;20137;-44
2023/03/28 02:46:31;;;;;;;18.95;10.95;;;;;;;2.29;80.14;102554.13;5052035;28;20033;-47
2023/03/28 02:49:21;;;;;;;20.95;11.48;;;;;;;2.33;79.42;102555.38;5052093;28;20056;-45
2023/03/28 02:52:08;;;;;;;17.27;11.23;;;;;;;2.18;79.82;102534.56;5049435;28;20028;-43
2023/03/28 02:54:51;;;;;;;20.77;11.38;;;;;;;2.37;79.79;102567.56;5052029;28;20059;-44
2023/03/28 02:57:41;;;;;;;20.10;11.40;;;;;;;2.38;79.56;102561.06;5052027;28;20490;-44
2023/03/28 03:00:11;;;;;;;17.58;10.88;;;;;;;2.35;79.50;102556.00;5034028;28;20036;-45
2023/03/28 03:02:38;;;;;;;18.73;11.35;;;;;;;2.37;79.57;102556.66;5051857;28;20056;-44
2023/03/28 03:05:04;;;;;;;19.67;11.52;;;;;;;2.34;79.51;102551.59;5051698;28;20420;-44
2023/03/28 03:07:30;;;;;;;19.35;11.50;;;;;;;2.36;79.72;102548.69;5051850;28;20033;-46
2023/03/28 03:09:56;;;;;;;20.20;11.60;;;;;;;2.32;79.23;102545.50;5051767;28;20115;-49
2023/03/28 03:12:22;;;;;;;19.75;11.57;;;;;;;2.32;79.46;102553.69;5051278;28;20112;-48
2023/03/28 03:14:49;;;;;;;19.63;11.23;;;;;;;2.29;79.46;102541.28;5051482;28;20029;-47
2023/03/28 03:17:16;;;;;;;20.30;11.40;;;;;;;2.23;79.54;102544.00;5051648;28;20102;-48
2023/03/28 03:19:42;;;;;;;18.58;11.43;;;;;;;2.21;79.64;102554.31;5051636;28;20032;-45
2023/03/28 03:22:07;;;;;;;20.50;11.20;;;;;;;2.18;79.88;102548.22;5051502;28;20045;-46
2023/03/28 03:24:33;;;;;;;17.98;11.45;;;;;;;2.15;80.14;102551.34;5051615;28;20039;-48
2023/03/28 03:26:58;;;;;;;19.88;11.30;;;;;;;2.13;79.75;102556.19;5051611;28;20459;-44
2023/03/28 03:29:24;;;;;;;18.90;12.00;;;;;;;2.14;79.70;102551.56;5051582;28;20029;-43
2023/03/28 03:31:49;;;;;;;18.63;10.93;;;;;;;2.15;79.70;102551.34;5051448;28;20119;-47
2023/03/28 03:34:15;;;;;;;19.25;11.32;;;;;;;2.17;79.80;102554.72;5051387;28;20021;-44
2023/03/28 03:36:41;;;;;;;19.80;11.48;;;;;;;2.20;79.21;102552.63;5051539;28;20458;-43
2023/03/28 03:39:07;;;;;;;20.52;11.63;;;;;;;2.18;80.12;102545.50;5051326;28;20745;-45
2023/03/28 03:41:32;;;;;;;17.65;11.27;;;;;;;2.17;78.95;102551.16;5051626;28;20071;-46
2023/03/28 03:43:57;;;;;;;20.45;11.27;;;;;;;2.08;78.99;102544.22;5051514;28;20490;-45
2023/03/28 03:46:23;;;;;;;21.17;11.25;;;;;;;2.05;80.14;102552.81;5050159;28;20044;-48
2023/03/28 03:48:48;;;;;;;19.00;11.50;;;;;;;2.01;79.29;102553.22;5049865;28;20021;-46
2023/03/28 03:51:14;;;;;;;18.73;11.65;;;;;;;2.01;80.31;102553.22;5051370;28;20111;-47
2023/03/28 03:53:39;;;;;;;19.70;12.02;;;;;;;1.96;79.10;102549.44;5051189;28;20052;-46
2023/03/28 03:56:06;;;;;;;19.88;11.88;;;;;;;1.93;80.00;102547.97;5053738;28;20106;-44
2023/03/28 03:58:31;;;;;;;18.13;11.40;;;;;;;1.96;80.25;102546.69;5055276;28;20032;-46
2023/03/28 04:00:57;;;;;;;18.92;11.55;;;;;;;1.94;79.58;102554.25;5055033;28;20037;-45
2023/03/28 04:03:23;;;;;;;20.02;12.40;;;;;;;1.83;80.80;102539.31;5055011;28;20025;-44
2023/03/28 04:05:48;;;;;;;21.05;12.05;;;;;;;1.90;80.56;102547.53;5055032;28;20389;-49
2023/03/28 04:08:13;;;;;;;19.98;11.98;;;;;;;1.88;80.82;102547.75;5054902;28;20110;-48
2023/03/28 04:10:40;;;;;;;20.02;12.20;;;;;;;1.87;80.58;102551.53;5054806;28;20028;-48
2023/03/28 04:13:05;;;;;;;19.27;11.65;;;;;;;1.84;80.86;102543.72;5054653;28;20638;-48
2023/03/28 04:15:30;;;;;;;21.42;12.02;;;;;;;1.86;80.87;102549.84;5054496;28;20029;-47
2023/03/28 04:17:56;;;;;;;19.58;12.20;;;;;;;1.88;80.28;102555.94;5054671;28;20036;-45
2023/03/28 04:20:25;;;;;;;18.50;11.43;;;;;;;1.87;80.78;102549.63;5054467;28;20112;-45
2023/03/28 04:22:52;;;;;;;20.02;11.60;;;;;;;1.90;80.61;102550.25;5054768;28;20585;-45
2023/03/28 04:25:20;;;;;;;20.33;12.27;;;;;;;1.89;80.65;102548.56;5054656;28;20048;-45
2023/03/28 04:27:46;;;;;;;20.38;11.50;;;;;;;1.88;80.52;102545.03;5054464;28;20029;-45
2023/03/28 04:30:12;;;;;;;19.33;11.13;;;;;;;1.86;80.69;102542.47;5036434;28;20112;-44
2023/03/28 04:32:39;;;;;;;20.55;11.50;;;;;;;1.82;80.45;102537.63;5054190;28;20557;-44
2023/03/28 04:35:05;;;;;;;19.50;11.32;;;;;;;1.80;80.77;102540.56;5054486;28;20083;-44
2023/03/28 04:37:30;;;;;;;18.52;11.30;;;;;;;1.82;80.03;102535.75;5054388;28;20029;-44
2023/03/28 04:39:55;;;;;;;21.95;11.27;;;;;;;1.84;80.79;102539.09;5054551;28;20031;-44
2023/03/28 04:42:21;;;;;;;21.65;12.20;;;;;;;1.87;80.83;102543.34;5054270;28;20569;-46
2023/03/28 04:44:46;;;;;;;22.88;12.60;;;;;;;1.89;80.71;102541.22;5054150;28;20112;-45
2023/03/28 04:47:12;;;;;;;20.15;12.15;;;;;;;1.91;80.13;102536.41;5051134;28;20028;-47
2023/03/28 04:49:37;;;;;;;18.95;12.40;;;;;;;1.94;80.07;102546.06;5054130;28;20470;-46
2023/03/28 04:52:04;;;;;;;22.38;13.10;;;;;;;1.93;80.60;102544.41;5054050;28;20037;-50
2023/03/28 04:54:29;;;;;;;20.58;12.68;;;;;;;1.93;80.62;102537.03;5054042;28;20389;-47
2023/03/28 04:56:54;;;;;;;20.05;13.27;;;;;;;1.97;80.65;102546.50;5054266;28;20116;-45
2023/03/28 04:59:20;;;;;;;20.40;12.95;;;;;;;1.97;79.67;102543.78;5054026;28;20025;-50
2023/03/28 05:01:49;;;;;;;21.13;13.40;;;;;;;1.93;80.20;102547.97;5053991;28;20102;-46
2023/03/28 05:04:17;;;;;;;20.80;13.40;;;;;;;1.92;80.37;102543.53;5053648;28;20603;-46
2023/03/28 05:06:44;;;;;;;21.80;13.07;;;;;;;1.94;80.15;102548.78;5053251;28;20029;-45
2023/03/28 05:09:11;;;;;;;20.02;13.38;;;;;;;1.93;80.04;102547.13;5053786;28;20043;-44
2023/03/28 05:11:37;;;;;;;20.23;13.52;;;;;;;1.92;80.03;102553.63;5053825;28;20108;-45
2023/03/28 05:14:02;;;;;;;19.75;13.07;;;;;;;1.92;79.97;102554.47;5035229;28;20112;-46
2023/03/28 05:16:28;;;;;;;21.55;13.95;;;;;;;1.92;80.13;102564.56;5053325;28;20624;-44
2023/03/28 05:18:55;;;;;;;21.05;13.45;;;;;;;1.92;80.01;102562.66;5053490;28;20029;-43
2023/03/28 05:21:20;;;;;;;21.25;13.63;;;;;;;1.88;79.70;102569.59;5053251;28;20041;-46
2023/03/28 05:23:45;;;;;;;21.77;13.15;;;;;;;1.85;80.72;102569.97;5053080;28;20045;-48
2023/03/28 05:26:11;;;;;;;20.45;13.38;;;;;;;1.87;80.88;102571.44;5053663;28;20048;-45
2023/03/28 05:28:36;;;;;;;23.88;13.27;;;;;;;1.86;80.10;102568.94;5053243;28;20060;-45
2023/03/28 05:31:02;;;;;;;24.00;13.32;;;;;;;1.87;80.99;102574.19;5035171;28;20720;-46
2023/03/28 05:33:27;;;;;;;21.75;13.00;;;;;;;1.87;80.89;102571.44;5053026;28;20033;-45
2023/03/28 05:35:53;;;;;;;21.58;13.32;;;;;;;1.90;80.98;102572.91;5052957;28;20343;-47
2023/03/28 05:38:18;;;;;;;20.92;13.40;;;;;;;1.89;80.72;102578.59;5053075;28;20048;-47
2023/03/28 05:40:43;;;;;;;19.98;13.10;;;;;;;1.91;80.80;102580.06;5050507;28;20044;-47
2023/03/28 05:43:08;;;;;;;21.83;13.50;;;;;;;1.93;80.71;102577.97;5052592;28;20424;-47
2023/03/28 05:45:34;;;;;;;24.70;13.77;;;;;;;1.93;80.72;102572.53;5053109;28;20036;-46
2023/03/28 05:47:59;;;;;;;20.17;12.88;;;;;;;1.91;81.00;102576.50;5052981;28;20552;-44
2023/03/28 05:50:25;;;;;;;21.33;13.32;;;;;;;1.90;81.15;102580.28;5052783;28;20037;-44
2023/03/28 05:52:50;;;;;;;22.98;13.55;;;;;;;1.90;81.21;102581.09;5052994;28;20021;-45
2023/03/28 05:55:16;;;;;;;23.35;13.50;;;;;;;1.96;82.81;102571.25;5053162;28;20031;-45
2023/03/28 05:57:42;;;;;;;23.90;14.18;;;;;;;2.01;81.67;102575.06;5034985;28;20033;-44
2023/03/28 06:00:12;;;;;;;20.98;13.40;;;;;;;2.05;81.67;102575.50;5052709;28;20390;-45
2023/03/28 06:02:39;;;;;;;22.67;13.85;;;;;;;2.14;81.66;102576.16;5052813;28;20039;-45
2023/03/28 06:05:08;;;;;;;22.05;14.30;;;;;;;2.20;81.32;102580.78;5052611;28;20096;-47
2023/03/28 06:07:34;;;;;;;21.33;14.48;;;;;;;2.23;81.20;102568.59;5052834;28;20033;-48
2023/03/28 06:10:00;;;;;;;23.48;14.95;;;;;;;2.27;80.88;102569.88;5041816;28;20144;-49
2023/03/28 06:12:26;;;;;;;23.08;14.85;;;;;;;2.32;80.69;102565.47;5043939;28;20481;-48
2023/03/28 06:14:51;;;;;;;23.17;14.73;;;;;;;2.36;80.44;102573.25;5046635;28;20025;-49
2023/03/28 06:17:16;;;;;;;23.85;14.73;;;;;;;2.37;80.27;102566.72;5040638;28;20059;-45
2023/03/28 06:19:42;;;;;;;22.30;14.55;;;;;;;2.40;80.49;102567.16;5038196;28;20060;-49
2023/03/28 06:22:07;;;;;;;23.10;14.65;;;;;;;2.47;80.37;102578.06;5052460;28;20080;-47
2023/03/28 06:24:33;;;;;;;22.75;14.52;;;;;;;2.52;80.85;102566.53;5052472;28;20096;-45
2023/03/28 06:26:58;;;;;;;24.45;14.90;;;;;;;2.56;80.77;102570.53;5052462;28;20032;-43
2023/03/28 06:29:23;;;;;;;21.75;14.75;;;;;;;2.58;80.41;102569.25;5052166;28;20427;-46
2023/03/28 06:31:49;;;;;;;22.92;14.77;;;;;;;2.68;80.18;102577.06;5052061;28;20029;-43
2023/03/28 06:34:14;;;;;;;23.85;14.73;;;;;;;2.73;80.46;102573.69;5051616;28;20060;-45
2023/03/28 06:36:39;;;;;;;24.58;14.93;;;;;;;2.78;79.94;102580.22;5048586;28;20036;-45
2023/03/28 06:39:04;;;;;;;24.23;15.07;;;;;;;2.78;79.39;102572.00;5051521;28;20028;-44
2023/03/28 06:41:30;;;;;;;24.10;14.95;;;;;;;2.86;80.49;102581.03;5051619;28;20124;-45
2023/03/28 06:43:55;;;;;;;21.80;14.40;;;;;;;2.93;79.37;102584.59;5051634;28;20028;-47
2023/03/28 06:46:20;;;;;;;23.67;15.05;;;;;;;2.93;79.41;102582.69;5051679;28;20021;-45
2023/03/28 06:48:46;;;;;;;23.50;14.80;;;;;;;3.01;80.25;102584.38;5051570;28;20029;-43
2023/03/28 06:51:14;;;;;;;23.40;14.80;;;;;;;3.02;80.00;102580.59;5051696;28;20028;-44
2023/03/28 06:53:40;;;;;;;24.27;14.48;;;;;;;3.05;80.15;102584.78;5051566;28;20679;-44
2023/03/28 06:56:06;;;;;;;22.33;14.85;;;;;;;3.04;79.04;102578.50;5051347;28;20107;-47
2023/03/28 06:58:31;;;;;;;23.48;14.77;;;;;;;3.06;79.67;102590.06;5051199;28;20025;-49
2023/03/28 07:01:00;;;;;;;24.63;15.23;;;;;;;3.09;79.29;102584.16;5051485;28;20548;-44
2023/03/28 07:03:25;;;;;;;23.17;14.43;;;;;;;3.12;78.78;102589.22;5051454;28;20029;-44
2023/03/28 07:05:52;;;;;;;24.02;14.60;;;;;;;3.10;78.66;102588.56;5051142;28;20094;-47
2023/03/28 07:08:17;;;;;;;23.17;14.68;;;;;;;3.10;79.05;102587.75;5051333;28;20033;-47
2023/03/28 07:10:42;;;;;;;22.83;14.30;;;;;;;3.06;78.74;102586.47;5051320;28;20153;-49
2023/03/28 07:13:08;;;;;;;23.02;15.35;;;;;;;3.04;79.99;102589.44;5051259;28;20087;-46
2023/03/28 07:15:34;;;;;;;23.65;14.70;;;;;;;3.08;79.51;102592.56;5051111;28;20036;-44
2023/03/28 07:18:00;;;;;;;24.90;15.07;;;;;;;3.10;79.09;102588.56;5046737;28;20025;-44
2023/03/28 07:20:26;;;;;;;21.73;14.15;;;;;;;3.18;80.51;102600.34;5031355;28;20036;-44
2023/03/28 07:22:52;;;;;;;25.88;15.30;;;;;;;3.19;79.40;102588.34;4996820;28;20053;-44
2023/03/28 07:25:18;;;;;;;25.27;14.32;;;;;;;3.26;79.20;102600.09;5031299;28;20039;-46
2023/03/28 07:27:43;;;;;;;24.13;14.23;;;;;;;3.32;79.16;102593.81;5031151;28;20040;-45
2023/03/28 07:30:10;;;;;;;22.70;13.57;;;;;;;3.39;79.86;102597.34;5034367;28;20048;-46
2023/03/28 07:32:35;;;;;;;25.52;13.98;;;;;;;3.48;79.26;102594.38;5031299;28;20026;-44
2023/03/28 07:35:02;;;;;;;24.60;13.98;;;;;;;3.57;79.89;102601.28;5033806;28;20044;-47
2023/03/28 07:37:28;;;;;;;23.27;14.50;;;;;;;3.73;79.96;102598.06;5032247;28;20103;-47
2023/03/28 07:39:55;;;;;;;22.48;13.93;;;;;;;3.86;79.97;102601.81;5034434;28;20025;-43
2023/03/28 07:42:21;;;;;;;22.25;13.68;;;;;;;3.95;78.53;102602.41;5045207;28;20043;-44
2023/03/28 07:44:46;;;;;;;27.42;14.38;;;;;;;4.03;79.26;102602.16;5054210;28;20109;-43
2023/03/28 07:47:11;;;;;;;23.95;13.48;;;;;;;4.16;78.43;102598.50;5053778;28;20107;-44
2023/03/28 07:49:38;;;;;;;23.98;14.00;;;;;;;4.26;78.44;102608.97;5053603;28;20028;-43
2023/03/28 07:52:04;;;;;;;21.83;13.38;;;;;;;4.36;78.27;102596.50;5053694;28;20029;-43
2023/03/28 07:54:32;;;;;;;27.10;15.80;;;;;;;4.34;75.86;102595.03;5053475;28;20112;-45
2023/03/28 07:56:58;;;;;;;30.10;16.83;;;;;;;4.39;76.52;102597.94;5053587;28;20029;-43
2023/03/28 07:59:25;;;;;;;25.45;14.18;;;;;;;4.44;76.88;102587.13;5053408;28;20390;-45
2023/03/28 08:01:51;;;;;;;27.73;14.00;;;;;;;4.54;77.53;102594.88;5053806;28;20056;-45
2023/03/28 08:04:16;;;;;;;24.70;13.52;;;;;;;4.60;75.70;102590.41;5053578;28;20037;-45
2023/03/28 08:06:42;;;;;;;23.83;12.65;;;;;;;4.66;75.26;102589.50;5053276;28;20033;-46
2023/03/28 08:09:12;;;;;;;23.30;12.80;;;;;;;4.73;75.19;102593.03;5056863;28;20031;-44
2023/03/28 08:11:40;;;;;;;21.55;12.88;;;;;;;4.80;74.03;102603.94;5073355;28;20032;-45
2023/03/28 08:14:10;;;;;;;24.45;13.77;;;;;;;4.82;74.03;102610.06;5046043;28;20039;-44
2023/03/28 08:16:36;;;;;;;21.33;11.88;;;;;;;4.90;75.03;102600.72;5053681;28;20040;-45
2023/03/28 08:19:02;;;;;;;22.42;12.30;;;;;;;5.15;75.53;102597.94;5053439;28;20041;-43
2023/03/28 08:21:30;;;;;;;21.17;12.05;;;;;;;5.22;73.33;102590.50;5053345;28;20048;-45
2023/03/28 08:23:56;;;;;;;19.60;11.50;;;;;;;5.38;75.97;102600.03;5053174;28;20077;-43
2023/03/28 08:26:22;;;;;;;19.98;11.57;;;;;;;5.50;76.36;102596.50;5053071;28;20036;-44
2023/03/28 08:28:47;;;;;;;22.23;11.75;;;;;;;5.61;74.36;102601.25;5052860;28;20082;-47
2023/03/28 08:31:15;;;;;;;18.90;11.30;;;;;;;5.74;75.18;102603.00;5052267;28;20025;-46
2023/03/28 08:33:42;;;;;;;20.80;11.90;;;;;;;5.81;73.34;102601.00;5052167;28;20108;-44
2023/03/28 08:36:08;;;;;;;21.55;11.10;;;;;;;5.89;71.62;102600.69;5052225;28;20024;-43
2023/03/28 08:38:34;;;;;;;20.17;11.35;;;;;;;5.99;72.21;102594.66;5050465;28;20060;-47
2023/03/28 08:41:19;;;;;;;20.38;10.60;;;;;;;6.07;71.65;102583.34;5050943;28;20370;-46
2023/03/28 08:44:05;;;;;;;19.02;10.50;;;;;;;6.24;70.41;102591.78;5051455;28;20028;-45
2023/03/28 08:46:34;;;;;;;21.15;10.77;;;;;;;6.15;68.55;102573.94;5051999;28;20083;-46
2023/03/28 08:49:03;;;;;;;19.70;11.40;;;;;;;6.31;69.88;102594.44;5051697;28;20025;-46
2023/03/28 08:51:34;;;;;;;22.23;10.50;;;;;;;6.38;67.81;102586.94;5051472;28;20037;-44
2023/03/28 08:54:35;;;;;;;18.08;10.95;;;;;;;6.59;69.59;102572.84;5051872;28;20033;-45
2023/03/28 08:57:03;;;;;;;20.10;11.02;;;;;;;6.75;67.57;102580.44;5052870;28;20033;-44
2023/03/28 08:59:38;;;;;;;21.38;11.63;;;;;;;6.89;68.62;102578.28;5052833;28;20029;-48
2023/03/28 09:02:17;;;;;;;19.88;10.90;;;;;;;7.04;66.17;102583.28;5052750;28;20135;-48
2023/03/28 09:04:43;;;;;;;19.67;10.98;;;;;;;7.10;65.71;102574.09;5052663;28;20086;-47
2023/03/28 09:07:25;;;;;;;18.48;10.70;;;;;;;7.15;66.28;102576.94;5052853;28;20028;-47
2023/03/28 09:10:17;;;;;;;17.95;10.98;;;;;;;7.33;67.39;102577.88;5052967;28;20482;-47
2023/03/28 09:12:58;;;;;;;20.73;10.57;;;;;;;7.37;63.53;102573.59;5052929;28;20029;-46
2023/03/28 09:15:35;;;;;;;19.42;10.18;;;;;;;7.52;67.19;102574.97;5052570;28;20075;-46
2023/03/28 09:18:15;;;;;;;20.33;10.57;;;;;;;7.49;63.25;102573.56;5052833;28;20032;-43
2023/03/28 09:20:46;;;;;;;16.40;10.23;;;;;;;7.60;64.81;102577.38;5034641;28;20517;-44
2023/03/28 09:23:20;;;;;;;17.63;10.40;;;;;;;7.65;62.11;102571.97;5052570;28;20060;-43
2023/03/28 09:25:56;;;;;;;17.95;10.35;;;;;;;7.55;62.50;102552.47;5052393;28;20075;-47
2023/03/28 09:28:36;;;;;;;17.42;9.90;;;;;;;7.75;63.57;102572.16;5052299;28;20032;-45
2023/03/28 09:31:05;;;;;;;20.25;10.77;;;;;;;7.79;61.53;102556.00;5052271;28;20033;-44
2023/03/28 09:33:35;;;;;;;17.60;10.32;;;;;;;7.89;62.55;102560.84;5052314;28;20021;-44
2023/03/28 09:36:01;;;;;;;19.75;10.73;;;;;;;8.04;62.50;102565.81;5052301;28;20061;-44
2023/03/28 09:38:46;;;;;;;18.33;10.50;;;;;;;8.14;61.39;102559.69;5033090;28;20505;-44
2023/03/28 09:41:36;;;;;;;15.48;9.95;;;;;;;8.20;64.67;102547.66;5052242;28;20041;-44
2023/03/28 09:44:05;;;;;;;17.25;10.02;;;;;;;8.30;59.76;102558.84;5052194;28;20037;-45
2023/03/28 09:46:42;;;;;;;18.48;10.35;;;;;;;8.33;60.35;102557.53;5052325;28;20033;-44
2023/03/28 09:49:17;;;;;;;17.80;10.52;;;;;;;8.38;61.60;102561.22;5052104;28;20112;-45
2023/03/28 09:51:42;;;;;;;18.27;10.27;;;;;;;8.47;61.73;102553.41;5051365;28;20136;-46
2023/03/28 09:54:08;;;;;;;19.00;10.43;;;;;;;8.64;62.59;102550.66;5051242;28;20533;-45
2023/03/28 09:56:44;;;;;;;16.55;9.82;;;;;;;8.73;59.79;102545.53;5052104;28;20029;-44
2023/03/28 09:59:31;;;;;;;18.38;10.80;;;;;;;8.82;60.05;102538.50;5051912;28;20029;-45
2023/03/28 10:01:59;;;;;;;18.02;9.90;;;;;;;8.86;60.44;102525.03;5051963;28;20082;-44
2023/03/28 10:04:27;;;;;;;18.17;10.20;;;;;;;8.89;59.49;102527.28;5051838;28;20090;-45
2023/03/28 10:06:55;;;;;;;16.20;10.10;;;;;;;8.99;60.09;102521.06;5051963;28;20029;-45
2023/03/28 10:09:22;;;;;;;16.27;10.38;;;;;;;9.15;61.08;102528.50;5051907;28;20040;-44
2023/03/28 10:11:59;;;;;;;16.10;9.75;;;;;;;9.26;60.92;102514.84;5051130;28;20727;-43
2023/03/28 10:14:32;;;;;;;17.67;10.10;;;;;;;9.40;56.99;102515.28;5050750;28;20056;-43
2023/03/28 10:17:11;;;;;;;18.25;10.10;;;;;;;9.39;57.45;102510.84;5051382;28;20114;-45
2023/03/28 10:19:40;;;;;;;19.30;10.68;;;;;;;9.28;55.46;102496.06;5051304;28;20794;-45
2023/03/28 10:22:19;;;;;;;17.55;10.00;;;;;;;9.38;61.42;102498.13;5051122;28;20031;-45
2023/03/28 10:24:46;;;;;;;16.35;9.88;;;;;;;9.50;60.08;102493.28;5051389;28;20079;-45
2023/03/28 10:27:24;;;;;;;16.55;9.93;;;;;;;9.51;58.43;102495.81;5051257;28;20108;-46
2023/03/28 10:29:55;;;;;;;17.35;9.85;;;;;;;9.56;60.03;102483.13;5050873;28;20575;-46
2023/03/28 10:32:30;;;;;;;17.75;10.05;;;;;;;9.72;60.66;102489.66;5050634;28;20056;-45
2023/03/28 10:35:05;;;;;;;17.33;10.10;;;;;;;9.68;58.08;102500.41;5032741;28;20120;-45
2023/03/28 10:37:32;;;;;;;17.33;10.50;;;;;;;9.62;55.29;102496.75;5031349;28;20033;-44
2023/03/28 10:40:24;;;;;;;18.40;10.30;;;;;;;9.74;58.04;102485.53;5050786;28;20028;-46
2023/03/28 10:42:50;;;;;;;17.20;10.27;;;;;;;9.83;58.14;102483.16;5050879;28;20025;-46
2023/03/28 10:45:42;;;;;;;17.83;10.30;;;;;;;9.79;54.27;102473.69;5032973;28;20414;-43
2023/03/28 10:48:15;;;;;;;18.67;10.00;;;;;;;9.74;57.31;102457.06;5050848;28;20060;-45
2023/03/28 10:50:46;;;;;;;14.07;9.68;;;;;;;9.89;65.45;102446.16;5050661;28;20039;-44
2023/03/28 10:53:23;;;;;;;15.73;9.98;;;;;;;10.08;58.75;102459.59;5050501;28;20059;-45
2023/03/28 10:56:05;;;;;;;17.25;10.00;;;;;;;10.13;52.80;102460.47;5050529;28;20433;-45
2023/03/28 10:58:38;;;;;;;15.25;9.90;;;;;;;10.25;63.45;102451.16;5050472;28;20024;-46
2023/03/28 11:01:28;;;;;;;14.73;10.07;;;;;;;10.37;60.96;102448.22;5050390;28;20041;-45
2023/03/28 11:04:18;;;;;;;17.30;10.45;;;;;;;10.23;51.57;102445.91;5032000;28;20048;-46
2023/03/28 11:06:48;;;;;;;17.30;10.38;;;;;;;10.08;51.10;102460.44;5032138;28;20427;-45
2023/03/28 11:09:24;;;;;;;16.45;10.00;;;;;;;9.97;51.24;102458.69;5050179;28;20036;-47
2023/03/28 11:12:00;;;;;;;17.80;10.35;;;;;;;9.77;51.83;102432.50;5050277;28;20056;-45
2023/03/28 11:14:53;;;;;;;15.77;10.15;;;;;;;9.65;50.88;102437.34;5049888;28;20750;-44
2023/03/28 11:17:27;;;;;;;15.85;9.88;;;;;;;9.65;52.80;102432.69;5050393;28;20033;-45
2023/03/28 11:19:52;;;;;;;17.25;9.93;;;;;;;9.76;55.15;102430.84;5050196;28;20060;-45
2023/03/28 11:22:45;;;;;;;15.18;10.02;;;;;;;9.84;55.94;102421.25;5049896;28;20510;-45
2023/03/28 11:25:20;;;;;;;18.50;10.10;;;;;;;9.83;51.98;102414.06;5050039;28;20067;-44
2023/03/28 11:27:59;;;;;;;15.57;10.25;;;;;;;9.89;55.21;102403.88;5049937;28;20021;-43
2023/03/28 11:30:31;;;;;;;17.02;10.20;;;;;;;9.83;50.31;102405.75;5050029;28;20037;-46
2023/03/28 11:33:18;;;;;;;16.23;9.82;;;;;;;9.94;56.88;102401.13;5049927;28;20033;-46